sensor_id;sensor_type;location;lat;lon;timestamp;P1;durP1;ratioP1;P2;durP2;ratioP2
8482;SDS011;4278;42.668;23.312;2022-10-03T00:00:15;5.03;;;3.23;;
8482;SDS011;4278;42.668;23.312;2022-10-03T00:05:49;2.60;;;2.20;;
8482;SDS011;4278;42.668;23.312;2022-10-03T00:08:26;4.40;;;2.33;;
8482;SDS011;4278;42.668;23.312;2022-10-03T00:11:05;2.70;;;2.13;;
8482;SDS011;4278;42.668;23.312;2022-10-03T00:13:42;4.50;;;2.90;;
8482;SDS011;4278;42.668;23.312;2022-10-03T00:16:17;3.50;;;2.20;;
8482;SDS011;4278;42.668;23.312;2022-10-03T00:18:51;2.57;;;2.07;;
8482;SDS011;4278;42.668;23.312;2022-10-03T00:21:26;3.07;;;2.13;;
8482;SDS011;4278;42.668;23.312;2022-10-03T00:24:06;3.10;;;2.30;;
8482;SDS011;4278;42.668;23.312;2022-10-03T00:26:48;7.43;;;2.83;;
8482;SDS011;4278;42.668;23.312;2022-10-03T00:29:28;3.20;;;2.50;;
8482;SDS011;4278;42.668;23.312;2022-10-03T00:32:16;5.40;;;2.13;;
8482;SDS011;4278;42.668;23.312;2022-10-03T00:35:04;4.47;;;2.30;;
8482;SDS011;4278;42.668;23.312;2022-10-03T00:37:46;2.97;;;2.30;;
8482;SDS011;4278;42.668;23.312;2022-10-03T00:40:53;3.33;;;2.10;;
8482;SDS011;4278;42.668;23.312;2022-10-03T00:47:09;3.20;;;2.30;;
8482;SDS011;4278;42.668;23.312;2022-10-03T00:53:04;2.70;;;2.30;;
8482;SDS011;4278;42.668;23.312;2022-10-03T00:55:45;2.67;;;1.80;;
8482;SDS011;4278;42.668;23.312;2022-10-03T01:04:06;4.10;;;2.20;;
8482;SDS011;4278;42.668;23.312;2022-10-03T01:06:46;6.27;;;2.40;;
8482;SDS011;4278;42.668;23.312;2022-10-03T01:09:29;5.23;;;2.27;;
8482;SDS011;4278;42.668;23.312;2022-10-03T01:12:09;2.87;;;2.40;;
8482;SDS011;4278;42.668;23.312;2022-10-03T01:14:51;3.43;;;2.30;;
8482;SDS011;4278;42.668;23.312;2022-10-03T01:17:33;2.27;;;2.00;;
8482;SDS011;4278;42.668;23.312;2022-10-03T01:20:07;4.10;;;2.63;;
8482;SDS011;4278;42.668;23.312;2022-10-03T01:22:58;2.63;;;2.27;;
8482;SDS011;4278;42.668;23.312;2022-10-03T01:25:46;5.20;;;2.17;;
8482;SDS011;4278;42.668;23.312;2022-10-03T01:28:38;2.17;;;1.83;;
8482;SDS011;4278;42.668;23.312;2022-10-03T01:31:27;4.13;;;2.20;;
8482;SDS011;4278;42.668;23.312;2022-10-03T01:34:00;5.37;;;2.33;;
8482;SDS011;4278;42.668;23.312;2022-10-03T01:36:33;3.10;;;2.30;;
8482;SDS011;4278;42.668;23.312;2022-10-03T01:39:12;3.20;;;2.20;;
8482;SDS011;4278;42.668;23.312;2022-10-03T01:41:49;3.17;;;2.00;;
8482;SDS011;4278;42.668;23.312;2022-10-03T01:44:25;4.93;;;2.20;;
8482;SDS011;4278;42.668;23.312;2022-10-03T01:47:05;5.60;;;2.30;;
8482;SDS011;4278;42.668;23.312;2022-10-03T01:49:41;4.33;;;2.50;;
8482;SDS011;4278;42.668;23.312;2022-10-03T01:52:14;6.90;;;2.33;;
8482;SDS011;4278;42.668;23.312;2022-10-03T01:54:49;3.03;;;2.13;;
8482;SDS011;4278;42.668;23.312;2022-10-03T01:57:24;5.67;;;2.73;;
8482;SDS011;4278;42.668;23.312;2022-10-03T02:00:01;2.80;;;2.10;;
8482;SDS011;4278;42.668;23.312;2022-10-03T02:02:32;4.53;;;2.40;;
8482;SDS011;4278;42.668;23.312;2022-10-03T02:05:07;3.80;;;2.10;;
8482;SDS011;4278;42.668;23.312;2022-10-03T02:07:39;3.10;;;1.97;;
8482;SDS011;4278;42.668;23.312;2022-10-03T02:10:18;2.20;;;1.97;;
8482;SDS011;4278;42.668;23.312;2022-10-03T02:12:54;4.23;;;2.00;;
8482;SDS011;4278;42.668;23.312;2022-10-03T02:15:30;4.47;;;2.07;;
8482;SDS011;4278;42.668;23.312;2022-10-03T02:18:08;3.07;;;1.93;;
8482;SDS011;4278;42.668;23.312;2022-10-03T02:20:41;2.90;;;1.87;;
8482;SDS011;4278;42.668;23.312;2022-10-03T02:23:20;3.37;;;2.30;;
8482;SDS011;4278;42.668;23.312;2022-10-03T02:25:52;4.77;;;2.20;;
8482;SDS011;4278;42.668;23.312;2022-10-03T02:31:50;2.00;;;1.73;;
8482;SDS011;4278;42.668;23.312;2022-10-03T02:34:40;3.03;;;2.10;;
8482;SDS011;4278;42.668;23.312;2022-10-03T02:43:18;3.10;;;1.90;;
8482;SDS011;4278;42.668;23.312;2022-10-03T02:46:19;2.50;;;2.17;;
8482;SDS011;4278;42.668;23.312;2022-10-03T02:49:14;2.60;;;1.60;;
8482;SDS011;4278;42.668;23.312;2022-10-03T02:52:12;1.93;;;1.83;;
8482;SDS011;4278;42.668;23.312;2022-10-03T02:55:09;2.80;;;2.10;;
8482;SDS011;4278;42.668;23.312;2022-10-03T02:58:00;3.67;;;2.63;;
8482;SDS011;4278;42.668;23.312;2022-10-03T03:00:59;4.27;;;2.80;;
8482;SDS011;4278;42.668;23.312;2022-10-03T03:03:51;4.43;;;2.87;;
8482;SDS011;4278;42.668;23.312;2022-10-03T03:06:40;4.37;;;2.93;;
8482;SDS011;4278;42.668;23.312;2022-10-03T03:09:43;7.03;;;2.93;;
8482;SDS011;4278;42.668;23.312;2022-10-03T03:18:38;7.10;;;3.13;;
8482;SDS011;4278;42.668;23.312;2022-10-03T03:21:12;3.87;;;3.10;;
8482;SDS011;4278;42.668;23.312;2022-10-03T03:23:54;7.03;;;3.27;;
8482;SDS011;4278;42.668;23.312;2022-10-03T03:26:43;6.70;;;3.50;;
8482;SDS011;4278;42.668;23.312;2022-10-03T03:29:28;6.83;;;3.50;;
8482;SDS011;4278;42.668;23.312;2022-10-03T03:32:06;9.43;;;3.90;;
8482;SDS011;4278;42.668;23.312;2022-10-03T03:34:43;5.40;;;3.33;;
8482;SDS011;4278;42.668;23.312;2022-10-03T03:37:18;3.83;;;3.10;;
8482;SDS011;4278;42.668;23.312;2022-10-03T03:40:00;7.67;;;3.00;;
8482;SDS011;4278;42.668;23.312;2022-10-03T03:42:42;5.90;;;3.17;;
8482;SDS011;4278;42.668;23.312;2022-10-03T03:45:29;6.63;;;2.90;;
8482;SDS011;4278;42.668;23.312;2022-10-03T03:48:20;8.00;;;3.00;;
8482;SDS011;4278;42.668;23.312;2022-10-03T03:51:15;6.20;;;2.90;;
8482;SDS011;4278;42.668;23.312;2022-10-03T03:53:55;5.80;;;2.83;;
8482;SDS011;4278;42.668;23.312;2022-10-03T03:56:52;6.10;;;3.27;;
8482;SDS011;4278;42.668;23.312;2022-10-03T03:59:38;4.63;;;2.93;;
8482;SDS011;4278;42.668;23.312;2022-10-03T04:02:23;2.90;;;2.60;;
8482;SDS011;4278;42.668;23.312;2022-10-03T04:05:07;4.83;;;2.80;;
8482;SDS011;4278;42.668;23.312;2022-10-03T04:07:50;3.17;;;2.30;;
8482;SDS011;4278;42.668;23.312;2022-10-03T04:10:40;10.07;;;3.67;;
8482;SDS011;4278;42.668;23.312;2022-10-03T04:13:22;3.33;;;2.70;;
8482;SDS011;4278;42.668;23.312;2022-10-03T04:16:25;4.93;;;2.63;;
8482;SDS011;4278;42.668;23.312;2022-10-03T04:19:23;5.00;;;3.00;;
8482;SDS011;4278;42.668;23.312;2022-10-03T04:22:02;4.53;;;3.17;;
8482;SDS011;4278;42.668;23.312;2022-10-03T04:27:50;6.73;;;3.20;;
8482;SDS011;4278;42.668;23.312;2022-10-03T04:30:38;5.03;;;3.13;;
8482;SDS011;4278;42.668;23.312;2022-10-03T04:33:23;5.30;;;3.30;;
8482;SDS011;4278;42.668;23.312;2022-10-03T04:36:11;6.33;;;2.97;;
8482;SDS011;4278;42.668;23.312;2022-10-03T04:38:48;4.90;;;3.20;;
8482;SDS011;4278;42.668;23.312;2022-10-03T04:41:27;4.60;;;3.17;;
8482;SDS011;4278;42.668;23.312;2022-10-03T04:44:07;12.23;;;3.90;;
8482;SDS011;4278;42.668;23.312;2022-10-03T04:46:46;6.70;;;3.47;;
8482;SDS011;4278;42.668;23.312;2022-10-03T04:49:21;6.73;;;3.67;;
8482;SDS011;4278;42.668;23.312;2022-10-03T04:51:57;6.20;;;3.47;;
8482;SDS011;4278;42.668;23.312;2022-10-03T04:54:33;8.53;;;4.00;;
8482;SDS011;4278;42.668;23.312;2022-10-03T04:57:15;6.33;;;3.60;;
8482;SDS011;4278;42.668;23.312;2022-10-03T04:59:54;8.17;;;4.37;;
8482;SDS011;4278;42.668;23.312;2022-10-03T05:02:40;5.63;;;3.50;;
8482;SDS011;4278;42.668;23.312;2022-10-03T05:08:09;8.60;;;3.50;;
8482;SDS011;4278;42.668;23.312;2022-10-03T05:10:47;7.33;;;3.57;;
8482;SDS011;4278;42.668;23.312;2022-10-03T05:13:31;5.80;;;3.63;;
8482;SDS011;4278;42.668;23.312;2022-10-03T05:16:14;5.07;;;3.67;;
8482;SDS011;4278;42.668;23.312;2022-10-03T05:18:51;5.67;;;3.37;;
8482;SDS011;4278;42.668;23.312;2022-10-03T05:21:23;5.80;;;3.60;;
8482;SDS011;4278;42.668;23.312;2022-10-03T05:24:00;7.97;;;4.00;;
8482;SDS011;4278;42.668;23.312;2022-10-03T05:26:42;8.40;;;4.23;;
8482;SDS011;4278;42.668;23.312;2022-10-03T05:29:17;7.50;;;3.40;;
8482;SDS011;4278;42.668;23.312;2022-10-03T05:31:57;5.30;;;3.10;;
8482;SDS011;4278;42.668;23.312;2022-10-03T05:34:41;8.63;;;3.57;;
8482;SDS011;4278;42.668;23.312;2022-10-03T05:37:29;5.33;;;3.40;;
8482;SDS011;4278;42.668;23.312;2022-10-03T05:40:15;11.05;;;6.95;;
8482;SDS011;4278;42.668;23.312;2022-10-03T05:45:46;4.27;;;3.40;;
8482;SDS011;4278;42.668;23.312;2022-10-03T05:48:19;5.97;;;3.73;;
8482;SDS011;4278;42.668;23.312;2022-10-03T06:00:24;7.33;;;3.90;;
8482;SDS011;4278;42.668;23.312;2022-10-03T06:03:20;5.53;;;3.40;;
8482;SDS011;4278;42.668;23.312;2022-10-03T06:06:12;8.57;;;3.77;;
8482;SDS011;4278;42.668;23.312;2022-10-03T06:12:04;8.80;;;4.40;;
8482;SDS011;4278;42.668;23.312;2022-10-03T06:14:41;10.33;;;4.70;;
8482;SDS011;4278;42.668;23.312;2022-10-03T06:24:07;7.67;;;4.07;;
8482;SDS011;4278;42.668;23.312;2022-10-03T06:27:00;7.87;;;3.93;;
8482;SDS011;4278;42.668;23.312;2022-10-03T06:30:07;6.83;;;3.80;;
8482;SDS011;4278;42.668;23.312;2022-10-03T06:39:31;6.90;;;4.07;;
8482;SDS011;4278;42.668;23.312;2022-10-03T06:42:35;8.90;;;4.57;;
8482;SDS011;4278;42.668;23.312;2022-10-03T06:51:54;16.37;;;5.07;;
8482;SDS011;4278;42.668;23.312;2022-10-03T06:57:52;8.97;;;5.23;;
8482;SDS011;4278;42.668;23.312;2022-10-03T07:00:56;9.40;;;5.67;;
8482;SDS011;4278;42.668;23.312;2022-10-03T07:03:52;14.60;;;6.60;;
8482;SDS011;4278;42.668;23.312;2022-10-03T07:06:40;7.53;;;5.23;;
8482;SDS011;4278;42.668;23.312;2022-10-03T07:09:51;11.23;;;5.13;;
8482;SDS011;4278;42.668;23.312;2022-10-03T07:12:41;12.97;;;5.80;;
8482;SDS011;4278;42.668;23.312;2022-10-03T07:24:40;11.98;;;5.65;;
8482;SDS011;4278;42.668;23.312;2022-10-03T07:27:45;9.73;;;4.93;;
8482;SDS011;4278;42.668;23.312;2022-10-03T07:30:26;8.30;;;5.33;;
8482;SDS011;4278;42.668;23.312;2022-10-03T07:33:24;9.73;;;5.33;;
8482;SDS011;4278;42.668;23.312;2022-10-03T07:46:05;10.50;;;5.23;;
8482;SDS011;4278;42.668;23.312;2022-10-03T07:48:55;10.70;;;5.47;;
8482;SDS011;4278;42.668;23.312;2022-10-03T07:51:39;14.93;;;6.50;;
8482;SDS011;4278;42.668;23.312;2022-10-03T07:54:24;11.10;;;5.70;;
8482;SDS011;4278;42.668;23.312;2022-10-03T07:57:32;13.30;;;6.87;;
8482;SDS011;4278;42.668;23.312;2022-10-03T08:00:23;12.87;;;6.30;;
8482;SDS011;4278;42.668;23.312;2022-10-03T08:03:07;7.97;;;4.83;;
8482;SDS011;4278;42.668;23.312;2022-10-03T08:14:54;8.47;;;5.70;;
8482;SDS011;4278;42.668;23.312;2022-10-03T08:20:37;11.13;;;7.67;;
8482;SDS011;4278;42.668;23.312;2022-10-03T08:23:20;11.50;;;5.13;;
8482;SDS011;4278;42.668;23.312;2022-10-03T08:26:10;12.20;;;4.77;;
8482;SDS011;4278;42.668;23.312;2022-10-03T08:28:56;9.07;;;4.80;;
8482;SDS011;4278;42.668;23.312;2022-10-03T08:34:44;9.13;;;4.83;;
8482;SDS011;4278;42.668;23.312;2022-10-03T08:37:38;9.83;;;4.67;;
8482;SDS011;4278;42.668;23.312;2022-10-03T08:40:44;10.87;;;6.30;;
8482;SDS011;4278;42.668;23.312;2022-10-03T08:46:48;10.03;;;7.13;;
8482;SDS011;4278;42.668;23.312;2022-10-03T08:55:53;5.33;;;3.60;;
8482;SDS011;4278;42.668;23.312;2022-10-03T08:58:36;6.83;;;3.63;;
8482;SDS011;4278;42.668;23.312;2022-10-03T09:01:33;6.33;;;3.60;;
8482;SDS011;4278;42.668;23.312;2022-10-03T09:04:31;4.23;;;3.20;;
8482;SDS011;4278;42.668;23.312;2022-10-03T09:10:36;6.33;;;2.60;;
8482;SDS011;4278;42.668;23.312;2022-10-03T09:13:40;5.83;;;2.40;;
8482;SDS011;4278;42.668;23.312;2022-10-03T09:19:45;4.23;;;2.17;;
8482;SDS011;4278;42.668;23.312;2022-10-03T09:22:41;5.33;;;2.20;;
8482;SDS011;4278;42.668;23.312;2022-10-03T09:25:43;5.10;;;2.20;;
8482;SDS011;4278;42.668;23.312;2022-10-03T09:31:49;2.70;;;2.03;;
8482;SDS011;4278;42.668;23.312;2022-10-03T09:34:58;4.10;;;2.17;;
8482;SDS011;4278;42.668;23.312;2022-10-03T09:38:06;5.90;;;2.00;;
8482;SDS011;4278;42.668;23.312;2022-10-03T09:41:20;4.30;;;2.37;;
8482;SDS011;4278;42.668;23.312;2022-10-03T09:44:02;3.57;;;2.30;;
8482;SDS011;4278;42.668;23.312;2022-10-03T09:46:57;3.17;;;2.70;;
8482;SDS011;4278;42.668;23.312;2022-10-03T09:53:09;2.93;;;2.27;;
8482;SDS011;4278;42.668;23.312;2022-10-03T09:56:06;2.47;;;2.10;;
8482;SDS011;4278;42.668;23.312;2022-10-03T09:59:05;2.97;;;2.17;;
8482;SDS011;4278;42.668;23.312;2022-10-03T10:01:46;3.10;;;2.10;;
8482;SDS011;4278;42.668;23.312;2022-10-03T10:13:29;2.67;;;1.77;;
8482;SDS011;4278;42.668;23.312;2022-10-03T10:16:25;2.20;;;1.80;;
8482;SDS011;4278;42.668;23.312;2022-10-03T10:19:16;2.17;;;1.70;;
8482;SDS011;4278;42.668;23.312;2022-10-03T10:22:10;5.43;;;2.05;;
8482;SDS011;4278;42.668;23.312;2022-10-03T10:25:02;1.65;;;1.55;;
8482;SDS011;4278;42.668;23.312;2022-10-03T10:28:02;2.03;;;1.70;;
8482;SDS011;4278;42.668;23.312;2022-10-03T10:30:53;4.07;;;1.70;;
8482;SDS011;4278;42.668;23.312;2022-10-03T10:46:08;1.67;;;1.58;;
8482;SDS011;4278;42.668;23.312;2022-10-03T10:52:09;1.40;;;1.30;;
8482;SDS011;4278;42.668;23.312;2022-10-03T10:55:09;2.03;;;1.52;;
8482;SDS011;4278;42.668;23.312;2022-10-03T11:01:42;2.70;;;1.25;;
8482;SDS011;4278;42.668;23.312;2022-10-03T11:10:58;2.38;;;1.73;;
8482;SDS011;4278;42.668;23.312;2022-10-03T11:20:02;2.03;;;1.50;;
8482;SDS011;4278;42.668;23.312;2022-10-03T11:23:26;1.83;;;1.65;;
8482;SDS011;4278;42.668;23.312;2022-10-03T11:26:16;2.40;;;1.70;;
8482;SDS011;4278;42.668;23.312;2022-10-03T11:29:17;2.25;;;2.05;;
8482;SDS011;4278;42.668;23.312;2022-10-03T11:35:42;3.50;;;2.10;;
8482;SDS011;4278;42.668;23.312;2022-10-03T11:38:15;2.38;;;2.17;;
8482;SDS011;4278;42.668;23.312;2022-10-03T11:40:46;3.40;;;2.65;;
8482;SDS011;4278;42.668;23.312;2022-10-03T11:46:05;5.18;;;2.80;;
8482;SDS011;4278;42.668;23.312;2022-10-03T11:48:39;3.03;;;2.72;;
8482;SDS011;4278;42.668;23.312;2022-10-03T11:51:09;2.38;;;2.15;;
8482;SDS011;4278;42.668;23.312;2022-10-03T11:53:41;3.15;;;2.28;;
8482;SDS011;4278;42.668;23.312;2022-10-03T11:56:18;2.92;;;2.58;;
8482;SDS011;4278;42.668;23.312;2022-10-03T11:58:53;2.85;;;2.50;;
8482;SDS011;4278;42.668;23.312;2022-10-03T12:01:23;5.70;;;3.38;;
8482;SDS011;4278;42.668;23.312;2022-10-03T12:03:55;4.45;;;3.47;;
8482;SDS011;4278;42.668;23.312;2022-10-03T12:06:30;7.90;;;4.35;;
8482;SDS011;4278;42.668;23.312;2022-10-03T12:09:16;9.85;;;4.63;;
8482;SDS011;4278;42.668;23.312;2022-10-03T12:11:45;4.72;;;3.35;;
8482;SDS011;4278;42.668;23.312;2022-10-03T12:14:21;4.72;;;3.65;;
8482;SDS011;4278;42.668;23.312;2022-10-03T12:16:53;4.00;;;3.58;;
8482;SDS011;4278;42.668;23.312;2022-10-03T12:19:25;3.60;;;3.30;;
8482;SDS011;4278;42.668;23.312;2022-10-03T12:21:57;5.53;;;3.60;;
8482;SDS011;4278;42.668;23.312;2022-10-03T12:24:27;5.50;;;4.60;;
8482;SDS011;4278;42.668;23.312;2022-10-03T12:27:02;5.88;;;4.15;;
8482;SDS011;4278;42.668;23.312;2022-10-03T12:29:31;6.20;;;3.95;;
8482;SDS011;4278;42.668;23.312;2022-10-03T12:32:13;4.60;;;4.05;;
8482;SDS011;4278;42.668;23.312;2022-10-03T12:34:42;3.47;;;2.95;;
8482;SDS011;4278;42.668;23.312;2022-10-03T12:37:27;5.15;;;2.72;;
8482;SDS011;4278;42.668;23.312;2022-10-03T12:39:57;3.92;;;3.10;;
8482;SDS011;4278;42.668;23.312;2022-10-03T12:42:29;3.13;;;2.70;;
8482;SDS011;4278;42.668;23.312;2022-10-03T12:44:57;4.63;;;3.35;;
8482;SDS011;4278;42.668;23.312;2022-10-03T12:47:30;3.13;;;2.65;;
8482;SDS011;4278;42.668;23.312;2022-10-03T12:50:00;3.95;;;2.88;;
8482;SDS011;4278;42.668;23.312;2022-10-03T12:52:34;3.33;;;3.03;;
8482;SDS011;4278;42.668;23.312;2022-10-03T12:55:07;4.20;;;3.70;;
8482;SDS011;4278;42.668;23.312;2022-10-03T12:57:43;5.40;;;4.00;;
8482;SDS011;4278;42.668;23.312;2022-10-03T13:00:13;4.20;;;3.55;;
8482;SDS011;4278;42.668;23.312;2022-10-03T13:02:43;3.70;;;3.40;;
8482;SDS011;4278;42.668;23.312;2022-10-03T13:08:05;4.07;;;3.60;;
8482;SDS011;4278;42.668;23.312;2022-10-03T13:10:37;3.50;;;3.20;;
8482;SDS011;4278;42.668;23.312;2022-10-03T13:13:14;3.42;;;3.08;;
8482;SDS011;4278;42.668;23.312;2022-10-03T13:15:49;5.63;;;3.50;;
8482;SDS011;4278;42.668;23.312;2022-10-03T13:18:35;6.32;;;4.35;;
8482;SDS011;4278;42.668;23.312;2022-10-03T13:21:09;7.95;;;6.13;;
8482;SDS011;4278;42.668;23.312;2022-10-03T13:23:41;3.90;;;3.37;;
8482;SDS011;4278;42.668;23.312;2022-10-03T13:26:13;11.45;;;4.95;;
8482;SDS011;4278;42.668;23.312;2022-10-03T13:28:47;12.17;;;9.10;;
8482;SDS011;4278;42.668;23.312;2022-10-03T13:31:16;6.38;;;4.63;;
8482;SDS011;4278;42.668;23.312;2022-10-03T13:33:44;7.28;;;5.10;;
8482;SDS011;4278;42.668;23.312;2022-10-03T13:36:13;3.72;;;3.35;;
8482;SDS011;4278;42.668;23.312;2022-10-03T13:38:47;4.82;;;3.53;;
8482;SDS011;4278;42.668;23.312;2022-10-03T13:41:26;4.60;;;3.00;;
8482;SDS011;4278;42.668;23.312;2022-10-03T13:43:58;4.70;;;3.60;;
8482;SDS011;4278;42.668;23.312;2022-10-03T13:46:28;3.53;;;3.22;;
8482;SDS011;4278;42.668;23.312;2022-10-03T13:48:57;4.07;;;3.57;;
8482;SDS011;4278;42.668;23.312;2022-10-03T13:51:26;5.15;;;3.38;;
8482;SDS011;4278;42.668;23.312;2022-10-03T13:53:58;3.33;;;2.57;;
8482;SDS011;4278;42.668;23.312;2022-10-03T13:59:08;4.50;;;2.95;;
8482;SDS011;4278;42.668;23.312;2022-10-03T14:01:42;3.37;;;3.07;;
8482;SDS011;4278;42.668;23.312;2022-10-03T14:06:53;8.00;;;3.53;;
8482;SDS011;4278;42.668;23.312;2022-10-03T14:09:32;3.00;;;2.70;;
8482;SDS011;4278;42.668;23.312;2022-10-03T14:12:03;2.83;;;2.37;;
8482;SDS011;4278;42.668;23.312;2022-10-03T14:14:41;4.93;;;2.73;;
8482;SDS011;4278;42.668;23.312;2022-10-03T14:17:13;3.23;;;2.30;;
8482;SDS011;4278;42.668;23.312;2022-10-03T14:19:45;2.43;;;2.03;;
8482;SDS011;4278;42.668;23.312;2022-10-03T14:22:19;2.50;;;2.30;;
8482;SDS011;4278;42.668;23.312;2022-10-03T14:25:01;1.90;;;1.80;;
8482;SDS011;4278;42.668;23.312;2022-10-03T14:27:35;2.30;;;2.10;;
8482;SDS011;4278;42.668;23.312;2022-10-03T14:30:03;3.70;;;2.10;;
8482;SDS011;4278;42.668;23.312;2022-10-03T14:32:32;3.80;;;2.00;;
8482;SDS011;4278;42.668;23.312;2022-10-03T14:35:04;2.67;;;2.40;;
8482;SDS011;4278;42.668;23.312;2022-10-03T14:37:36;2.30;;;2.10;;
8482;SDS011;4278;42.668;23.312;2022-10-03T14:40:13;3.47;;;2.17;;
8482;SDS011;4278;42.668;23.312;2022-10-03T14:43:12;2.50;;;2.30;;
8482;SDS011;4278;42.668;23.312;2022-10-03T14:45:42;3.17;;;2.60;;
8482;SDS011;4278;42.668;23.312;2022-10-03T14:48:11;3.13;;;2.50;;
8482;SDS011;4278;42.668;23.312;2022-10-03T14:50:39;2.97;;;2.47;;
8482;SDS011;4278;42.668;23.312;2022-10-03T14:53:07;5.50;;;2.40;;
8482;SDS011;4278;42.668;23.312;2022-10-03T14:55:42;2.83;;;2.50;;
8482;SDS011;4278;42.668;23.312;2022-10-03T14:58:12;3.37;;;2.40;;
8482;SDS011;4278;42.668;23.312;2022-10-03T15:00:42;3.13;;;2.80;;
8482;SDS011;4278;42.668;23.312;2022-10-03T15:03:18;3.10;;;2.80;;
8482;SDS011;4278;42.668;23.312;2022-10-03T15:05:55;4.40;;;3.33;;
8482;SDS011;4278;42.668;23.312;2022-10-03T15:08:24;4.27;;;2.63;;
8482;SDS011;4278;42.668;23.312;2022-10-03T15:10:53;5.13;;;2.87;;
8482;SDS011;4278;42.668;23.312;2022-10-03T15:13:21;3.43;;;2.73;;
8482;SDS011;4278;42.668;23.312;2022-10-03T15:15:48;4.00;;;3.13;;
8482;SDS011;4278;42.668;23.312;2022-10-03T15:18:17;3.60;;;2.77;;
8482;SDS011;4278;42.668;23.312;2022-10-03T15:20:45;3.67;;;2.93;;
8482;SDS011;4278;42.668;23.312;2022-10-03T15:23:17;3.60;;;2.77;;
8482;SDS011;4278;42.668;23.312;2022-10-03T15:25:44;4.77;;;3.07;;
8482;SDS011;4278;42.668;23.312;2022-10-03T15:28:19;2.57;;;2.37;;
8482;SDS011;4278;42.668;23.312;2022-10-03T15:30:46;3.67;;;2.83;;
8482;SDS011;4278;42.668;23.312;2022-10-03T15:33:15;4.63;;;2.70;;
8482;SDS011;4278;42.668;23.312;2022-10-03T15:35:44;5.97;;;3.10;;
8482;SDS011;4278;42.668;23.312;2022-10-03T15:38:12;4.20;;;2.70;;
8482;SDS011;4278;42.668;23.312;2022-10-03T15:40:42;4.57;;;3.27;;
8482;SDS011;4278;42.668;23.312;2022-10-03T15:43:16;3.37;;;3.07;;
8482;SDS011;4278;42.668;23.312;2022-10-03T15:45:51;5.03;;;3.97;;
8482;SDS011;4278;42.668;23.312;2022-10-03T15:48:18;2.77;;;2.57;;
8482;SDS011;4278;42.668;23.312;2022-10-03T15:50:48;4.03;;;2.40;;
8482;SDS011;4278;42.668;23.312;2022-10-03T15:53:18;3.27;;;2.73;;
8482;SDS011;4278;42.668;23.312;2022-10-03T15:55:47;3.67;;;2.67;;
8482;SDS011;4278;42.668;23.312;2022-10-03T15:58:15;2.97;;;2.60;;
8482;SDS011;4278;42.668;23.312;2022-10-03T16:00:46;6.97;;;3.47;;
8482;SDS011;4278;42.668;23.312;2022-10-03T16:03:16;9.90;;;3.27;;
8482;SDS011;4278;42.668;23.312;2022-10-03T16:05:50;6.60;;;2.80;;
8482;SDS011;4278;42.668;23.312;2022-10-03T16:08:19;5.03;;;2.37;;
8482;SDS011;4278;42.668;23.312;2022-10-03T16:10:48;6.33;;;2.83;;
8482;SDS011;4278;42.668;23.312;2022-10-03T16:13:21;2.30;;;2.10;;
8482;SDS011;4278;42.668;23.312;2022-10-03T16:15:57;4.57;;;2.87;;
8482;SDS011;4278;42.668;23.312;2022-10-03T16:21:14;3.87;;;2.77;;
8482;SDS011;4278;42.668;23.312;2022-10-03T16:23:45;2.70;;;2.17;;
8482;SDS011;4278;42.668;23.312;2022-10-03T16:26:11;2.93;;;2.40;;
8482;SDS011;4278;42.668;23.312;2022-10-03T16:28:40;2.83;;;2.00;;
8482;SDS011;4278;42.668;23.312;2022-10-03T16:31:11;3.43;;;2.03;;
8482;SDS011;4278;42.668;23.312;2022-10-03T16:33:39;2.73;;;2.20;;
8482;SDS011;4278;42.668;23.312;2022-10-03T16:36:07;3.07;;;2.60;;
8482;SDS011;4278;42.668;23.312;2022-10-03T16:38:36;2.57;;;2.00;;
8482;SDS011;4278;42.668;23.312;2022-10-03T16:41:03;5.60;;;2.37;;
8482;SDS011;4278;42.668;23.312;2022-10-03T16:43:31;1.93;;;1.83;;
8482;SDS011;4278;42.668;23.312;2022-10-03T16:45:59;4.97;;;2.70;;
8482;SDS011;4278;42.668;23.312;2022-10-03T16:48:27;4.37;;;2.63;;
8482;SDS011;4278;42.668;23.312;2022-10-03T16:51:16;2.60;;;2.13;;
8482;SDS011;4278;42.668;23.312;2022-10-03T16:53:44;4.30;;;3.07;;
8482;SDS011;4278;42.668;23.312;2022-10-03T16:56:13;3.57;;;2.70;;
8482;SDS011;4278;42.668;23.312;2022-10-03T16:58:42;3.57;;;2.97;;
8482;SDS011;4278;42.668;23.312;2022-10-03T17:01:12;3.87;;;2.87;;
8482;SDS011;4278;42.668;23.312;2022-10-03T17:03:41;6.27;;;3.17;;
8482;SDS011;4278;42.668;23.312;2022-10-03T17:06:13;5.27;;;2.80;;
8482;SDS011;4278;42.668;23.312;2022-10-03T17:08:41;2.63;;;2.43;;
8482;SDS011;4278;42.668;23.312;2022-10-03T17:11:14;4.80;;;2.47;;
8482;SDS011;4278;42.668;23.312;2022-10-03T17:13:43;4.73;;;2.73;;
8482;SDS011;4278;42.668;23.312;2022-10-03T17:16:11;3.70;;;2.23;;
8482;SDS011;4278;42.668;23.312;2022-10-03T17:18:39;5.30;;;3.07;;
8482;SDS011;4278;42.668;23.312;2022-10-03T17:21:12;4.53;;;2.80;;
8482;SDS011;4278;42.668;23.312;2022-10-03T17:23:42;4.00;;;2.70;;
8482;SDS011;4278;42.668;23.312;2022-10-03T17:26:11;2.53;;;2.33;;
8482;SDS011;4278;42.668;23.312;2022-10-03T17:28:44;2.73;;;2.20;;
8482;SDS011;4278;42.668;23.312;2022-10-03T17:31:19;3.63;;;2.60;;
8482;SDS011;4278;42.668;23.312;2022-10-03T17:33:48;3.27;;;2.60;;
8482;SDS011;4278;42.668;23.312;2022-10-03T17:39:02;3.77;;;2.33;;
8482;SDS011;4278;42.668;23.312;2022-10-03T17:41:30;2.70;;;2.40;;
8482;SDS011;4278;42.668;23.312;2022-10-03T17:44:06;3.57;;;2.70;;
8482;SDS011;4278;42.668;23.312;2022-10-03T17:46:36;4.73;;;2.80;;
8482;SDS011;4278;42.668;23.312;2022-10-03T17:49:06;4.40;;;2.77;;
8482;SDS011;4278;42.668;23.312;2022-10-03T17:51:42;2.50;;;2.10;;
8482;SDS011;4278;42.668;23.312;2022-10-03T17:54:13;3.20;;;2.90;;
8482;SDS011;4278;42.668;23.312;2022-10-03T17:56:43;2.93;;;2.60;;
8482;SDS011;4278;42.668;23.312;2022-10-03T17:59:13;3.37;;;2.40;;
8482;SDS011;4278;42.668;23.312;2022-10-03T18:01:41;3.00;;;2.57;;
8482;SDS011;4278;42.668;23.312;2022-10-03T18:04:10;4.00;;;2.53;;
8482;SDS011;4278;42.668;23.312;2022-10-03T18:06:44;3.73;;;3.03;;
8482;SDS011;4278;42.668;23.312;2022-10-03T18:09:19;3.60;;;2.40;;
8482;SDS011;4278;42.668;23.312;2022-10-03T18:11:47;5.13;;;2.23;;
8482;SDS011;4278;42.668;23.312;2022-10-03T18:14:18;2.70;;;2.30;;
8482;SDS011;4278;42.668;23.312;2022-10-03T18:16:51;2.40;;;2.20;;
8482;SDS011;4278;42.668;23.312;2022-10-03T18:19:21;2.10;;;1.90;;
8482;SDS011;4278;42.668;23.312;2022-10-03T18:21:56;3.27;;;2.40;;
8482;SDS011;4278;42.668;23.312;2022-10-03T18:27:19;2.93;;;2.17;;
8482;SDS011;4278;42.668;23.312;2022-10-03T18:29:53;2.63;;;2.10;;
8482;SDS011;4278;42.668;23.312;2022-10-03T18:32:22;5.77;;;2.47;;
8482;SDS011;4278;42.668;23.312;2022-10-03T18:34:59;2.40;;;1.93;;
8482;SDS011;4278;42.668;23.312;2022-10-03T18:40:14;3.90;;;2.20;;
8482;SDS011;4278;42.668;23.312;2022-10-03T18:42:43;3.30;;;2.00;;
8482;SDS011;4278;42.668;23.312;2022-10-03T18:45:16;3.37;;;1.80;;
8482;SDS011;4278;42.668;23.312;2022-10-03T18:47:49;7.87;;;1.80;;
8482;SDS011;4278;42.668;23.312;2022-10-03T18:50:17;3.67;;;1.90;;
8482;SDS011;4278;42.668;23.312;2022-10-03T18:52:49;3.50;;;2.20;;
8482;SDS011;4278;42.668;23.312;2022-10-03T18:55:19;4.13;;;1.97;;
8482;SDS011;4278;42.668;23.312;2022-10-03T18:57:53;4.50;;;2.30;;
8482;SDS011;4278;42.668;23.312;2022-10-03T19:00:26;2.53;;;2.07;;
8482;SDS011;4278;42.668;23.312;2022-10-03T19:02:54;3.47;;;2.13;;
8482;SDS011;4278;42.668;23.312;2022-10-03T19:05:22;4.77;;;2.07;;
8482;SDS011;4278;42.668;23.312;2022-10-03T19:07:53;2.57;;;1.80;;
8482;SDS011;4278;42.668;23.312;2022-10-03T19:10:26;5.23;;;2.23;;
8482;SDS011;4278;42.668;23.312;2022-10-03T19:12:58;2.60;;;1.60;;
8482;SDS011;4278;42.668;23.312;2022-10-03T19:15:37;3.37;;;1.93;;
8482;SDS011;4278;42.668;23.312;2022-10-03T19:18:10;3.17;;;1.83;;
8482;SDS011;4278;42.668;23.312;2022-10-03T19:20:42;1.60;;;1.50;;
8482;SDS011;4278;42.668;23.312;2022-10-03T19:23:10;3.77;;;1.80;;
8482;SDS011;4278;42.668;23.312;2022-10-03T19:25:38;4.07;;;2.00;;
8482;SDS011;4278;42.668;23.312;2022-10-03T19:28:07;4.63;;;2.00;;
8482;SDS011;4278;42.668;23.312;2022-10-03T19:30:39;4.53;;;2.30;;